Time;durP1;ratioP1;P1;durP2;ratioP2;P2;SDS_P1;SDS_P2;PMS_P1;PMS_P2;Temp;Humidity;BMP_temperature;BMP_pressure;BME280_temperature;BME280_humidity;BME280_pressure;Samples;Min_cycle;Max_cycle;Signal;HPM_P1;HPM_P2
2023/03/18 00:00:47;;;;;;;4.93;3.80;;;;;;;;;;5012570;28;21072;-71
2023/03/18 00:03:14;;;;;;;4.73;4.13;;;;;;;;;;4996044;28;20453;-68
2023/03/18 00:05:41;;;;;;;5.40;3.93;;;;;;;;;;4994531;28;20795;-70
2023/03/18 00:08:09;;;;;;;11.60;4.83;;;;;;;;;;4995825;28;20455;-68
2023/03/18 00:10:36;;;;;;;4.23;3.80;;;;;;;;;;4994111;28;20944;-67
2023/03/18 00:13:04;;;;;;;5.90;3.90;;;;;;;;;;4994489;28;20440;-67
2023/03/18 00:15:33;;;;;;;6.67;4.20;;;;;;;;;;4993992;28;20504;-68
2023/03/18 00:18:00;;;;;;;8.30;4.87;;;;;;;;;;4994619;28;20454;-68
2023/03/18 00:20:37;;;;;;;10.17;4.40;;;;;;;;;;4994180;28;20488;-70
2023/03/18 00:23:04;;;;;;;7.40;4.60;;;;;;;;;;4994081;28;20444;-69
2023/03/18 00:25:32;;;;;;;7.90;4.50;;;;;;;;;;4994077;28;20445;-68
2023/03/18 00:27:59;;;;;;;6.20;4.33;;;;;;;;;;4994209;28;20521;-68
2023/03/18 00:30:26;;;;;;;6.93;4.63;;;;;;;;;;4994093;28;20455;-68
2023/03/18 00:32:56;;;;;;;7.77;5.07;;;;;;;;;;4994694;28;20450;-68
2023/03/18 00:35:26;;;;;;;9.63;4.33;;;;;;;;;;4994016;28;20472;-68
2023/03/18 00:37:53;;;;;;;4.40;4.00;;;;;;;;;;4994409;28;20476;-68
2023/03/18 00:40:27;;;;;;;4.77;3.90;;;;;;;;;;4993986;28;20490;-68
2023/03/18 00:43:00;;;;;;;5.70;4.30;;;;;;;;;;4994256;28;20434;-68
2023/03/18 00:45:28;;;;;;;6.10;4.73;;;;;;;;;;4994320;28;20440;-69
2023/03/18 00:47:57;;;;;;;11.37;4.80;;;;;;;;;;4994296;28;20445;-68
2023/03/18 00:50:24;;;;;;;10.87;5.27;;;;;;;;;;4993700;28;21033;-68
2023/03/18 00:52:51;;;;;;;7.77;5.00;;;;;;;;;;4993871;28;20532;-68
2023/03/18 00:55:19;;;;;;;10.13;5.03;;;;;;;;;;4997460;28;20528;-68
2023/03/18 00:57:46;;;;;;;11.03;5.57;;;;;;;;;;4997853;28;20552;-68
2023/03/18 01:00:15;;;;;;;6.50;5.03;;;;;;;;;;4997856;28;20481;-68
2023/03/18 01:02:43;;;;;;;5.10;4.60;;;;;;;;;;4999513;28;20457;-68
2023/03/18 01:05:13;;;;;;;6.13;4.93;;;;;;;;;;4997675;28;20939;-68
2023/03/18 01:07:40;;;;;;;9.23;5.00;;;;;;;;;;4997624;28;20441;-69
2023/03/18 01:10:08;;;;;;;6.40;4.90;;;;;;;;;;4999306;28;20449;-68
2023/03/18 01:12:36;;;;;;;6.00;5.00;;;;;;;;;;4997903;28;20521;-68
2023/03/18 01:15:05;;;;;;;9.60;4.83;;;;;;;;;;4997891;28;20440;-70
2023/03/18 01:17:32;;;;;;;8.70;4.30;;;;;;;;;;4997294;28;20482;-68
2023/03/18 01:20:00;;;;;;;10.07;4.83;;;;;;;;;;4997580;28;20484;-68
2023/03/18 01:22:28;;;;;;;9.37;5.10;;;;;;;;;;4997274;28;20436;-68
2023/03/18 01:24:56;;;;;;;8.63;4.60;;;;;;;;;;4997265;28;20488;-68
2023/03/18 01:27:23;;;;;;;9.90;5.17;;;;;;;;;;4997543;28;20458;-68
2023/03/18 01:29:50;;;;;;;10.50;4.70;;;;;;;;;;4997493;28;20492;-69
2023/03/18 01:32:17;;;;;;;7.73;5.17;;;;;;;;;;4997322;28;20451;-68
2023/03/18 01:34:45;;;;;;;8.63;4.60;;;;;;;;;;4997034;28;21000;-69
2023/03/18 01:37:12;;;;;;;5.67;4.70;;;;;;;;;;4997421;28;20450;-68
2023/03/18 01:39:41;;;;;;;7.53;5.27;;;;;;;;;;4997322;28;20837;-68
2023/03/18 01:42:08;;;;;;;8.13;5.03;;;;;;;;;;4996936;28;20446;-69
2023/03/18 01:44:36;;;;;;;10.73;4.70;;;;;;;;;;4997224;28;20531;-68
2023/03/18 01:47:03;;;;;;;11.07;4.33;;;;;;;;;;4997127;28;20448;-68
2023/03/18 01:49:32;;;;;;;12.83;5.80;;;;;;;;;;4996800;28;20448;-68
2023/03/18 01:52:02;;;;;;;14.93;5.00;;;;;;;;;;4997256;28;20476;-68
2023/03/18 01:54:31;;;;;;;9.40;4.97;;;;;;;;;;4996961;28;20478;-68
2023/03/18 01:57:01;;;;;;;14.20;4.83;;;;;;;;;;4997156;28;20432;-68
2023/03/18 01:59:30;;;;;;;7.07;4.70;;;;;;;;;;4996814;28;20453;-68
2023/03/18 02:02:02;;;;;;;8.77;4.70;;;;;;;;;;4998500;28;20515;-68
2023/03/18 02:04:34;;;;;;;10.10;4.80;;;;;;;;;;4997207;28;20432;-68
2023/03/18 02:07:01;;;;;;;8.93;5.30;;;;;;;;;;4997154;28;20446;-68
2023/03/18 02:09:29;;;;;;;6.47;5.10;;;;;;;;;;4998217;28;20464;-68
2023/03/18 02:11:57;;;;;;;7.30;4.10;;;;;;;;;;4996579;28;20455;-69
2023/03/18 02:14:26;;;;;;;9.27;4.87;;;;;;;;;;4997481;28;20445;-68
2023/03/18 02:16:56;;;;;;;6.87;4.63;;;;;;;;;;4997149;28;20926;-68
2023/03/18 02:19:31;;;;;;;6.33;4.93;;;;;;;;;;4996331;28;20523;-68
2023/03/18 02:22:03;;;;;;;6.20;4.40;;;;;;;;;;4996969;28;20490;-68
2023/03/18 02:24:34;;;;;;;8.63;5.20;;;;;;;;;;4996252;28;20536;-68
2023/03/18 02:27:02;;;;;;;5.00;4.50;;;;;;;;;;4997046;28;20491;-68
2023/03/18 02:29:32;;;;;;;7.03;5.03;;;;;;;;;;4996409;28;20436;-68
2023/03/18 02:32:01;;;;;;;9.70;4.63;;;;;;;;;;4996371;28;20440;-69
2023/03/18 02:34:29;;;;;;;9.63;4.47;;;;;;;;;;4995872;28;20484;-68
2023/03/18 02:36:57;;;;;;;5.33;4.43;;;;;;;;;;4996257;28;20441;-68
2023/03/18 02:39:24;;;;;;;7.10;4.50;;;;;;;;;;4996216;28;20445;-68
2023/03/18 02:41:52;;;;;;;9.30;4.73;;;;;;;;;;4996367;28;20489;-68
2023/03/18 02:44:20;;;;;;;6.90;4.20;;;;;;;;;;4996324;28;20447;-68
2023/03/18 02:46:54;;;;;;;5.77;4.50;;;;;;;;;;4995907;28;20937;-68
2023/03/18 02:49:21;;;;;;;5.93;4.23;;;;;;;;;;4995685;28;20451;-67
2023/03/18 02:51:49;;;;;;;7.20;3.80;;;;;;;;;;4995975;28;20452;-68
2023/03/18 02:54:17;;;;;;;5.20;4.70;;;;;;;;;;4995932;28;20453;-68
2023/03/18 02:56:45;;;;;;;8.70;5.30;;;;;;;;;;4996310;28;20448;-67
2023/03/18 02:59:13;;;;;;;7.63;5.03;;;;;;;;;;4995439;28;20445;-67
2023/03/18 03:01:41;;;;;;;8.80;4.73;;;;;;;;;;4997094;28;21055;-68
2023/03/18 03:04:11;;;;;;;8.17;4.67;;;;;;;;;;4995640;28;20522;-69
2023/03/18 03:06:38;;;;;;;7.00;5.13;;;;;;;;;;4995829;28;20460;-68
2023/03/18 03:09:06;;;;;;;5.87;4.30;;;;;;;;;;4997701;28;20460;-68
2023/03/18 03:11:33;;;;;;;7.83;4.70;;;;;;;;;;4995514;28;20448;-69
2023/03/18 03:14:00;;;;;;;8.53;4.83;;;;;;;;;;4995710;28;20444;-68
2023/03/18 03:16:28;;;;;;;8.50;4.23;;;;;;;;;;4994585;28;20847;-68
2023/03/18 03:18:55;;;;;;;16.83;5.13;;;;;;;;;;4995579;28;20852;-68
2023/03/18 03:21:24;;;;;;;4.40;4.00;;;;;;;;;;4995423;28;20571;-68
2023/03/18 03:23:51;;;;;;;7.43;3.90;;;;;;;;;;4995567;28;20466;-68
2023/03/18 03:26:19;;;;;;;6.40;4.37;;;;;;;;;;4995544;28;20458;-68
2023/03/18 03:28:46;;;;;;;7.07;4.60;;;;;;;;;;4995829;28;20830;-68
2023/03/18 03:31:14;;;;;;;6.33;4.53;;;;;;;;;;4994928;28;20481;-68
2023/03/18 03:33:42;;;;;;;11.20;5.20;;;;;;;;;;4994826;28;20543;-68
2023/03/18 03:36:10;;;;;;;4.60;4.20;;;;;;;;;;4995155;28;20818;-68
2023/03/18 03:38:40;;;;;;;7.80;4.30;;;;;;;;;;4994959;28;20449;-68
2023/03/18 03:41:09;;;;;;;9.47;5.17;;;;;;;;;;4994670;28;20489;-68
2023/03/18 03:43:36;;;;;;;5.10;4.67;;;;;;;;;;4994913;28;20767;-67
2023/03/18 03:46:04;;;;;;;8.37;4.70;;;;;;;;;;4995151;28;20527;-69
2023/03/18 03:48:31;;;;;;;7.93;4.40;;;;;;;;;;4994685;28;20450;-67
2023/03/18 03:50:58;;;;;;;7.83;4.70;;;;;;;;;;4994556;28;20456;-68
2023/03/18 03:53:27;;;;;;;7.97;5.00;;;;;;;;;;4994437;28;20445;-68
2023/03/18 03:55:56;;;;;;;11.23;5.10;;;;;;;;;;5006274;28;20444;-68
2023/03/18 03:58:23;;;;;;;8.87;4.53;;;;;;;;;;5013847;28;20473;-68
2023/03/18 04:00:51;;;;;;;5.00;4.50;;;;;;;;;;5011897;28;20480;-68
2023/03/18 04:03:18;;;;;;;7.00;4.83;;;;;;;;;;4995232;28;20496;-68
2023/03/18 04:05:46;;;;;;;8.80;4.20;;;;;;;;;;4994623;28;20456;-68
2023/03/18 04:08:13;;;;;;;8.03;4.70;;;;;;;;;;4995619;28;20456;-69
2023/03/18 04:10:41;;;;;;;5.23;4.70;;;;;;;;;;4994287;28;20455;-68
2023/03/18 04:13:10;;;;;;;9.00;5.20;;;;;;;;;;4994400;28;20445;-68
2023/03/18 04:15:37;;;;;;;7.83;4.97;;;;;;;;;;4994415;28;20455;-68
2023/03/18 04:18:06;;;;;;;6.13;4.23;;;;;;;;;;4994544;28;20456;-68
2023/03/18 04:20:34;;;;;;;7.97;4.87;;;;;;;;;;4993916;28;20479;-68
2023/03/18 04:23:01;;;;;;;10.07;5.23;;;;;;;;;;4994544;28;20448;-68
2023/03/18 04:25:28;;;;;;;5.80;4.70;;;;;;;;;;5003593;28;20443;-68
2023/03/18 04:27:56;;;;;;;11.60;4.80;;;;;;;;;;5013668;28;20450;-68
2023/03/18 04:30:25;;;;;;;10.93;5.00;;;;;;;;;;5013686;28;20530;-68
2023/03/18 04:32:53;;;;;;;4.70;4.30;;;;;;;;;;5013894;28;20774;-67
2023/03/18 04:35:22;;;;;;;7.23;4.77;;;;;;;;;;5013664;28;20562;-68
2023/03/18 04:37:49;;;;;;;10.57;5.23;;;;;;;;;;5013173;28;20447;-68
2023/03/18 04:40:16;;;;;;;7.87;5.00;;;;;;;;;;5013768;28;20454;-67
2023/03/18 04:42:46;;;;;;;7.70;4.70;;;;;;;;;;5013619;28;20788;-68
2023/03/18 04:45:14;;;;;;;11.73;5.33;;;;;;;;;;5013562;28;20441;-67
2023/03/18 04:47:44;;;;;;;6.53;4.60;;;;;;;;;;5013295;28;20447;-68
2023/03/18 04:50:11;;;;;;;10.90;5.50;;;;;;;;;;5013922;28;20812;-68
2023/03/18 04:52:38;;;;;;;10.43;5.43;;;;;;;;;;5013619;28;20439;-68
2023/03/18 04:55:07;;;;;;;5.40;4.90;;;;;;;;;;5013038;28;20447;-68
2023/03/18 04:57:36;;;;;;;7.60;5.30;;;;;;;;;;5013470;28;20450;-68
2023/03/18 05:00:04;;;;;;;7.20;5.67;;;;;;;;;;5013391;28;20505;-68
2023/03/18 05:02:32;;;;;;;9.17;5.40;;;;;;;;;;5013249;28;20483;-68
2023/03/18 05:05:00;;;;;;;7.17;5.07;;;;;;;;;;5013564;28;20459;-68
2023/03/18 05:07:27;;;;;;;5.03;4.53;;;;;;;;;;5013466;28;20522;-68
2023/03/18 05:09:55;;;;;;;6.03;5.43;;;;;;;;;;5013287;28;20538;-68
2023/03/18 05:12:22;;;;;;;7.07;4.90;;;;;;;;;;5013007;28;20456;-68
2023/03/18 05:14:49;;;;;;;7.30;5.23;;;;;;;;;;5013134;28;20959;-68
2023/03/18 05:17:16;;;;;;;7.93;4.93;;;;;;;;;;5013353;28;20452;-68
2023/03/18 05:19:44;;;;;;;6.73;4.87;;;;;;;;;;5013496;28;20451;-68
2023/03/18 05:22:14;;;;;;;10.77;5.33;;;;;;;;;;5013247;28;20484;-68
2023/03/18 05:24:42;;;;;;;6.67;5.10;;;;;;;;;;5013035;28;20458;-69
2023/03/18 05:27:12;;;;;;;7.00;5.00;;;;;;;;;;5013458;28;20448;-68
2023/03/18 05:29:40;;;;;;;12.83;5.27;;;;;;;;;;5013060;28;20515;-68
2023/03/18 05:32:07;;;;;;;9.07;5.87;;;;;;;;;;5012932;28;20447;-68
2023/03/18 05:34:35;;;;;;;6.03;5.30;;;;;;;;;;5012837;28;20494;-67
2023/03/18 05:37:03;;;;;;;9.10;5.70;;;;;;;;;;5013149;28;20439;-68
2023/03/18 05:39:32;;;;;;;13.17;6.10;;;;;;;;;;5013151;28;20516;-68
2023/03/18 05:41:59;;;;;;;10.40;6.37;;;;;;;;;;5016747;28;20483;-68
2023/03/18 05:44:27;;;;;;;7.20;5.47;;;;;;;;;;5016282;28;20449;-68
2023/03/18 05:46:55;;;;;;;7.67;5.47;;;;;;;;;;5016758;28;20440;-67
2023/03/18 05:49:23;;;;;;;7.60;6.37;;;;;;;;;;5016429;28;20534;-67
2023/03/18 05:51:50;;;;;;;12.67;6.00;;;;;;;;;;5016334;28;20440;-67
2023/03/18 05:54:18;;;;;;;16.80;7.23;;;;;;;;;;5016599;28;20449;-68
2023/03/18 05:56:47;;;;;;;7.20;5.60;;;;;;;;;;4996791;28;20440;-68
2023/03/18 05:59:14;;;;;;;7.00;5.53;;;;;;;;;;4996916;28;20443;-68
2023/03/18 06:01:43;;;;;;;8.83;5.80;;;;;;;;;;4996321;28;21054;-68
2023/03/18 06:04:10;;;;;;;6.90;5.17;;;;;;;;;;4996799;28;20447;-67
2023/03/18 06:06:39;;;;;;;9.43;5.30;;;;;;;;;;4996838;28;20456;-68
2023/03/18 06:09:07;;;;;;;8.20;5.77;;;;;;;;;;4996714;28;20440;-68
2023/03/18 06:11:34;;;;;;;7.80;5.37;;;;;;;;;;4996569;28;20459;-68
2023/03/18 06:14:03;;;;;;;5.60;4.93;;;;;;;;;;4996170;28;20452;-67
2023/03/18 06:16:30;;;;;;;8.60;5.97;;;;;;;;;;4996390;28;20438;-68
2023/03/18 06:18:57;;;;;;;9.20;6.10;;;;;;;;;;4996551;28;20527;-68
2023/03/18 06:21:25;;;;;;;10.40;6.37;;;;;;;;;;4996442;28;20904;-67
2023/03/18 06:23:53;;;;;;;9.20;5.77;;;;;;;;;;4996097;28;20449;-68
2023/03/18 06:26:20;;;;;;;6.57;5.80;;;;;;;;;;5012692;28;20812;-68
2023/03/18 06:28:48;;;;;;;12.20;5.90;;;;;;;;;;5015834;28;20447;-68
2023/03/18 06:31:16;;;;;;;7.23;5.37;;;;;;;;;;5015808;28;20456;-68
2023/03/18 06:33:43;;;;;;;9.53;6.30;;;;;;;;;;5015903;28;20847;-70
2023/03/18 06:36:11;;;;;;;12.17;6.40;;;;;;;;;;5015798;28;20480;-68
2023/03/18 06:38:39;;;;;;;9.37;5.67;;;;;;;;;;5015713;28;20511;-70
2023/03/18 06:41:07;;;;;;;7.33;5.70;;;;;;;;;;5015298;28;20455;-68
2023/03/18 06:43:34;;;;;;;6.03;5.43;;;;;;;;;;5015517;28;20445;-69
2023/03/18 06:46:02;;;;;;;9.23;5.33;;;;;;;;;;5015594;28;20873;-70
2023/03/18 06:48:31;;;;;;;8.33;5.67;;;;;;;;;;5015507;28;20448;-68
2023/03/18 06:50:59;;;;;;;9.53;5.70;;;;;;;;;;5014682;28;20448;-67
2023/03/18 06:53:26;;;;;;;10.43;6.27;;;;;;;;;;5015411;28;20448;-67
2023/03/18 06:55:55;;;;;;;9.57;6.40;;;;;;;;;;5015371;28;20444;-67
2023/03/18 06:58:23;;;;;;;6.90;6.27;;;;;;;;;;5015637;28;20495;-67
2023/03/18 07:00:50;;;;;;;6.13;5.50;;;;;;;;;;5015324;28;20812;-67
2023/03/18 07:03:17;;;;;;;10.20;6.13;;;;;;;;;;5014969;28;20512;-67
2023/03/18 07:05:46;;;;;;;7.20;5.40;;;;;;;;;;5015462;28;20806;-69
2023/03/18 07:08:14;;;;;;;6.20;5.60;;;;;;;;;;5015088;28;20471;-67
2023/03/18 07:10:41;;;;;;;9.27;6.40;;;;;;;;;;5014787;28;20535;-68
2023/03/18 07:13:12;;;;;;;8.03;5.77;;;;;;;;;;5015036;28;20451;-69
2023/03/18 07:15:39;;;;;;;7.97;6.00;;;;;;;;;;5014592;28;20447;-67
2023/03/18 07:18:06;;;;;;;7.43;6.40;;;;;;;;;;5014976;28;20445;-70
2023/03/18 07:20:35;;;;;;;9.40;7.17;;;;;;;;;;5014531;28;20452;-68
2023/03/18 07:23:04;;;;;;;6.27;5.67;;;;;;;;;;5014453;28;20477;-67
2023/03/18 07:25:31;;;;;;;11.10;6.10;;;;;;;;;;5014534;28;20964;-68
2023/03/18 07:27:59;;;;;;;8.13;6.77;;;;;;;;;;5014615;28;20471;-67
2023/03/18 07:30:26;;;;;;;7.10;6.40;;;;;;;;;;5014727;28;20452;-69
2023/03/18 07:32:54;;;;;;;8.57;6.30;;;;;;;;;;5014263;28;20949;-68
2023/03/18 07:35:21;;;;;;;12.40;7.10;;;;;;;;;;5014405;28;20485;-68
2023/03/18 07:37:48;;;;;;;7.30;6.33;;;;;;;;;;5014545;28;20444;-69
2023/03/18 07:40:17;;;;;;;7.03;5.90;;;;;;;;;;5014361;28;20952;-68
2023/03/18 07:42:44;;;;;;;7.13;5.63;;;;;;;;;;5014280;28;20837;-68
2023/03/18 07:45:11;;;;;;;11.53;7.37;;;;;;;;;;5014802;28;20458;-68
2023/03/18 07:47:39;;;;;;;9.13;6.90;;;;;;;;;;5014152;28;20443;-68
2023/03/18 07:50:06;;;;;;;9.00;6.80;;;;;;;;;;5014228;28;20537;-68
2023/03/18 07:52:34;;;;;;;9.67;6.90;;;;;;;;;;5014234;28;20805;-68
2023/03/18 07:55:01;;;;;;;13.50;8.90;;;;;;;;;;5014117;28;20452;-68
2023/03/18 07:57:30;;;;;;;8.20;7.37;;;;;;;;;;5013870;28;20445;-68
2023/03/18 07:59:57;;;;;;;10.73;7.70;;;;;;;;;;5014269;28;20536;-68
2023/03/18 08:02:26;;;;;;;9.47;7.67;;;;;;;;;;5013578;28;20525;-68
2023/03/18 08:04:53;;;;;;;11.87;8.30;;;;;;;;;;5014262;28;20454;-68
2023/03/18 08:07:21;;;;;;;13.30;8.30;;;;;;;;;;5013780;28;20937;-68
2023/03/18 08:09:50;;;;;;;10.93;8.07;;;;;;;;;;5013761;28;20454;-68
2023/03/18 08:12:17;;;;;;;15.43;8.20;;;;;;;;;;5013926;28;20541;-68
2023/03/18 08:14:47;;;;;;;16.27;10.10;;;;;;;;;;5014369;28;20536;-68
2023/03/18 08:17:14;;;;;;;12.73;9.43;;;;;;;;;;5014093;28;20448;-68
2023/03/18 08:19:41;;;;;;;11.60;8.90;;;;;;;;;;5014063;28;20448;-68
2023/03/18 08:22:09;;;;;;;14.00;9.20;;;;;;;;;;5013505;28;20577;-68
2023/03/18 08:24:37;;;;;;;11.90;7.90;;;;;;;;;;5014543;28;20496;-68
2023/03/18 08:27:04;;;;;;;10.47;9.30;;;;;;;;;;5013900;28;20454;-69
2023/03/18 08:29:32;;;;;;;12.73;9.90;;;;;;;;;;5013920;28;20533;-68
2023/03/18 08:32:00;;;;;;;13.37;9.53;;;;;;;;;;5014143;28;20862;-69
2023/03/18 08:34:28;;;;;;;11.23;9.70;;;;;;;;;;5013303;28;20465;-68
2023/03/18 08:36:55;;;;;;;15.90;11.73;;;;;;;;;;5013699;28;20449;-68
2023/03/18 08:39:23;;;;;;;16.93;12.53;;;;;;;;;;5013838;28;20546;-68
2023/03/18 08:41:50;;;;;;;18.23;12.87;;;;;;;;;;5013300;28;20442;-69
2023/03/18 08:44:17;;;;;;;16.07;12.00;;;;;;;;;;5013798;28;20491;-68
2023/03/18 08:46:44;;;;;;;17.30;12.50;;;;;;;;;;5013687;28;20442;-68
2023/03/18 08:49:13;;;;;;;13.70;11.10;;;;;;;;;;5013589;28;20447;-68
2023/03/18 08:51:41;;;;;;;20.40;13.47;;;;;;;;;;5014422;28;20438;-68
2023/03/18 08:54:08;;;;;;;21.47;13.03;;;;;;;;;;5013632;28;20447;-68
2023/03/18 08:56:35;;;;;;;20.00;13.63;;;;;;;;;;5013352;28;20510;-68
2023/03/18 08:59:02;;;;;;;20.50;14.70;;;;;;;;;;5013563;28;20445;-68
2023/03/18 09:01:30;;;;;;;16.80;14.20;;;;;;;;;;5013884;28;20818;-69
2023/03/18 09:03:58;;;;;;;18.60;14.73;;;;;;;;;;5013506;28;20486;-68
2023/03/18 09:06:27;;;;;;;21.53;14.90;;;;;;;;;;5013078;28;20462;-68
2023/03/18 09:08:54;;;;;;;19.50;14.53;;;;;;;;;;5013654;28;20454;-68
2023/03/18 09:11:22;;;;;;;19.77;14.60;;;;;;;;;;5013783;28;20450;-68
2023/03/18 09:13:50;;;;;;;15.80;13.60;;;;;;;;;;5013319;28;20540;-68
2023/03/18 09:16:17;;;;;;;20.80;13.17;;;;;;;;;;5016772;28;20454;-68
2023/03/18 09:18:44;;;;;;;16.37;12.63;;;;;;;;;;5017343;28;20452;-68
2023/03/18 09:21:12;;;;;;;17.93;11.97;;;;;;;;;;5017623;28;20442;-68
2023/03/18 09:23:41;;;;;;;16.37;13.00;;;;;;;;;;5017194;28;20473;-68
2023/03/18 09:26:10;;;;;;;14.00;12.40;;;;;;;;;;5017366;28;20442;-68
2023/03/18 09:28:37;;;;;;;12.90;10.53;;;;;;;;;;5017171;28;20488;-68
2023/03/18 09:31:04;;;;;;;10.53;9.40;;;;;;;;;;5017147;28;20477;-68
2023/03/18 09:33:32;;;;;;;12.57;9.10;;;;;;;;;;5014469;28;20525;-68
2023/03/18 09:35:59;;;;;;;13.70;9.10;;;;;;;;;;5016573;28;20568;-68
2023/03/18 09:38:26;;;;;;;15.10;8.87;;;;;;;;;;5016840;28;20441;-68
2023/03/18 09:41:02;;;;;;;10.67;9.00;;;;;;;;;;5016765;28;20438;-69
2023/03/18 09:43:38;;;;;;;10.57;9.47;;;;;;;;;;5016951;28;20473;-68
2023/03/18 09:46:11;;;;;;;12.83;9.77;;;;;;;;;;5016579;28;20464;-68
2023/03/18 09:48:45;;;;;;;11.10;9.93;;;;;;;;;;5016868;28;20507;-68
2023/03/18 09:51:18;;;;;;;12.80;10.80;;;;;;;;;;5016302;28;20923;-68
2023/03/18 09:53:48;;;;;;;15.23;10.50;;;;;;;;;;5017052;28;20437;-68
2023/03/18 09:56:17;;;;;;;11.57;10.50;;;;;;;;;;5016212;28;20449;-68
2023/03/18 09:58:48;;;;;;;12.37;10.97;;;;;;;;;;5016338;28;20469;-68
2023/03/18 10:01:16;;;;;;;13.00;10.77;;;;;;;;;;5016332;28;20449;-68
2023/03/18 10:03:46;;;;;;;14.70;11.87;;;;;;;;;;5005961;28;20831;-68
2023/03/18 10:06:17;;;;;;;15.60;11.20;;;;;;;;;;4996852;28;20944;-68
2023/03/18 10:08:46;;;;;;;13.67;12.03;;;;;;;;;;4996847;28;20436;-68
2023/03/18 10:11:20;;;;;;;12.57;10.87;;;;;;;;;;4996754;28;20936;-68
2023/03/18 10:13:53;;;;;;;12.70;11.40;;;;;;;;;;4996975;28;20881;-67
2023/03/18 10:16:22;;;;;;;12.80;11.70;;;;;;;;;;4996838;28;20522;-68
2023/03/18 10:18:49;;;;;;;12.87;11.57;;;;;;;;;;4996415;28;20467;-68
2023/03/18 10:21:21;;;;;;;16.20;12.90;;;;;;;;;;4996102;28;20544;-67
2023/03/18 10:23:52;;;;;;;16.67;10.00;;;;;;;;;;4996019;28;20502;-67
2023/03/18 10:26:24;;;;;;;11.30;9.80;;;;;;;;;;4996543;28;20428;-67
2023/03/18 10:29:00;;;;;;;10.63;9.33;;;;;;;;;;4996325;28;20538;-68
2023/03/18 10:31:32;;;;;;;21.23;18.63;;;;;;;;;;4996382;28;20789;-68
2023/03/18 10:34:01;;;;;;;17.93;16.13;;;;;;;;;;4995780;28;20447;-69
2023/03/18 10:36:32;;;;;;;12.13;11.03;;;;;;;;;;4996653;28;20456;-68
2023/03/18 10:39:01;;;;;;;11.90;10.77;;;;;;;;;;4995720;28;20436;-68
2023/03/18 10:41:32;;;;;;;12.53;11.23;;;;;;;;;;4996052;28;20849;-68
2023/03/18 10:44:03;;;;;;;10.43;9.53;;;;;;;;;;4996070;28;20827;-68
2023/03/18 10:46:31;;;;;;;12.57;11.53;;;;;;;;;;4996001;28;20462;-68
2023/03/18 10:49:01;;;;;;;12.07;11.00;;;;;;;;;;4995903;28;20441;-68
2023/03/18 10:51:31;;;;;;;12.90;11.80;;;;;;;;;;4996031;28;20440;-67
2023/03/18 10:54:03;;;;;;;14.47;12.67;;;;;;;;;;4995976;28;20757;-67
2023/03/18 10:56:32;;;;;;;12.30;11.20;;;;;;;;;;4995710;28;20430;-68
2023/03/18 10:59:00;;;;;;;11.80;10.60;;;;;;;;;;4995618;28;20883;-68
2023/03/18 11:01:28;;;;;;;11.73;10.53;;;;;;;;;;4995279;28;20936;-68
2023/03/18 11:04:00;;;;;;;11.30;10.30;;;;;;;;;;4995247;28;20490;-68
2023/03/18 11:06:31;;;;;;;10.77;9.77;;;;;;;;;;4995850;28;20491;-68
2023/03/18 11:09:03;;;;;;;11.93;9.13;;;;;;;;;;4995600;28;20443;-68
2023/03/18 11:11:33;;;;;;;9.63;8.63;;;;;;;;;;4995564;28;20854;-68
2023/03/18 11:14:02;;;;;;;8.63;7.93;;;;;;;;;;4995289;28;20923;-68
2023/03/18 11:16:30;;;;;;;7.30;6.60;;;;;;;;;;4995079;28;20446;-68
2023/03/18 11:18:58;;;;;;;9.17;6.20;;;;;;;;;;4995136;28;20468;-68
2023/03/18 11:21:27;;;;;;;7.20;6.23;;;;;;;;;;4995438;28;20442;-68
2023/03/18 11:24:07;;;;;;;7.10;6.50;;;;;;;;;;4995112;28;20508;-70
2023/03/18 11:26:45;;;;;;;6.20;5.60;;;;;;;;;;4995359;28;20430;-68
2023/03/18 11:29:14;;;;;;;6.37;5.77;;;;;;;;;;4994742;28;20434;-67
2023/03/18 11:31:49;;;;;;;6.97;6.37;;;;;;;;;;4995664;28;20432;-68
2023/03/18 11:34:18;;;;;;;7.10;6.50;;;;;;;;;;4994434;28;20951;-68
2023/03/18 11:36:52;;;;;;;7.40;6.00;;;;;;;;;;4995110;28;20435;-67
2023/03/18 11:39:20;;;;;;;5.53;5.03;;;;;;;;;;4994663;28;20444;-68
2023/03/18 11:41:48;;;;;;;6.10;5.13;;;;;;;;;;4994945;28;20855;-67
2023/03/18 11:44:17;;;;;;;5.00;4.60;;;;;;;;;;4994942;28;20526;-68
2023/03/18 11:46:46;;;;;;;5.80;5.40;;;;;;;;;;4994506;28;20454;-68
2023/03/18 11:49:15;;;;;;;5.87;5.33;;;;;;;;;;5002502;28;20466;-67
2023/03/18 11:51:49;;;;;;;6.83;6.17;;;;;;;;;;5014040;28;20492;-68
2023/03/18 11:54:24;;;;;;;5.63;5.13;;;;;;;;;;5014655;28;20442;-68
2023/03/18 11:56:56;;;;;;;5.80;5.30;;;;;;;;;;5014479;28;20434;-68
2023/03/18 11:59:47;;;;;;;5.73;5.33;;;;;;;;;;5014364;28;20430;-67
2023/03/18 12:02:25;;;;;;;5.30;4.80;;;;;;;;;;4999350;28;20447;-67
2023/03/18 12:05:07;;;;;;;5.40;5.00;;;;;;;;;;4994415;28;20494;-69
2023/03/18 12:07:42;;;;;;;4.80;4.50;;;;;;;;;;4994936;28;20435;-69
2023/03/18 12:10:15;;;;;;;6.83;4.57;;;;;;;;;;4994712;28;20509;-68
2023/03/18 12:12:50;;;;;;;4.97;4.57;;;;;;;;;;4994408;28;20434;-69
2023/03/18 12:15:23;;;;;;;4.63;4.33;;;;;;;;;;4994250;28;20565;-69
2023/03/18 12:17:55;;;;;;;5.07;4.57;;;;;;;;;;4994062;28;20445;-68
2023/03/18 12:20:39;;;;;;;19.50;16.50;;;;;;;;;;4994254;28;20941;-68
2023/03/18 12:23:13;;;;;;;6.17;5.63;;;;;;;;;;4994202;28;20592;-69
2023/03/18 12:25:46;;;;;;;4.83;3.70;;;;;;;;;;4994403;28;20862;-69
2023/03/18 12:28:20;;;;;;;3.93;3.67;;;;;;;;;;4994392;28;20443;-68
2023/03/18 12:30:58;;;;;;;8.10;4.13;;;;;;;;;;4994240;28;20434;-68
2023/03/18 12:33:32;;;;;;;5.27;3.93;;;;;;;;;;4994594;28;20442;-68
2023/03/18 12:36:05;;;;;;;4.53;4.10;;;;;;;;;;4993724;28;20487;-68
2023/03/18 12:38:43;;;;;;;4.20;3.90;;;;;;;;;;4994310;28;20914;-68
2023/03/18 12:41:16;;;;;;;4.40;3.90;;;;;;;;;;4994132;28;20434;-68
2023/03/18 12:43:53;;;;;;;3.20;2.90;;;;;;;;;;4993749;28;20464;-68
2023/03/18 12:46:24;;;;;;;4.47;4.03;;;;;;;;;;4993905;28;20521;-68
2023/03/18 12:48:52;;;;;;;4.50;4.10;;;;;;;;;;4994359;28;20448;-68
2023/03/18 12:51:22;;;;;;;5.30;4.80;;;;;;;;;;4993499;28;20451;-68
2023/03/18 12:53:51;;;;;;;5.57;4.70;;;;;;;;;;4993984;28;20461;-68
2023/03/18 12:56:21;;;;;;;4.20;3.90;;;;;;;;;;4993444;28;20919;-68
2023/03/18 12:58:51;;;;;;;5.07;4.47;;;;;;;;;;4993629;28;20444;-68
2023/03/18 13:01:23;;;;;;;4.80;4.40;;;;;;;;;;4993795;28;20447;-68
2023/03/18 13:03:52;;;;;;;4.63;4.33;;;;;;;;;;4993745;28;20492;-68
2023/03/18 13:06:22;;;;;;;4.10;3.80;;;;;;;;;;4993898;28;20457;-68
2023/03/18 13:09:00;;;;;;;4.00;3.50;;;;;;;;;;4993653;28;20798;-68
2023/03/18 13:11:32;;;;;;;3.30;3.00;;;;;;;;;;4993854;28;20428;-68
2023/03/18 13:14:01;;;;;;;4.77;4.37;;;;;;;;;;4994539;28;20482;-68
2023/03/18 13:16:30;;;;;;;4.87;3.93;;;;;;;;;;4993303;28;20457;-68
2023/03/18 13:18:58;;;;;;;5.20;4.20;;;;;;;;;;4993540;28;20444;-68
2023/03/18 13:21:27;;;;;;;4.00;3.70;;;;;;;;;;5003744;28;20488;-68
2023/03/18 13:24:05;;;;;;;4.00;3.70;;;;;;;;;;5013308;28;20480;-67
2023/03/18 13:26:39;;;;;;;4.70;4.10;;;;;;;;;;5013029;28;20435;-68
2023/03/18 13:29:15;;;;;;;3.03;2.83;;;;;;;;;;5013321;28;20427;-70
2023/03/18 13:31:51;;;;;;;3.10;2.90;;;;;;;;;;5013415;28;20456;-68
2023/03/18 13:34:33;;;;;;;2.70;2.57;;;;;;;;;;5012623;28;21660;-70
2023/03/18 13:37:19;;;;;;;7.30;3.30;;;;;;;;;;5013621;28;20431;-68
2023/03/18 13:39:53;;;;;;;8.13;7.30;;;;;;;;;;5013530;28;20447;-68
2023/03/18 13:42:25;;;;;;;5.33;3.73;;;;;;;;;;5012721;28;20429;-69
2023/03/18 13:44:59;;;;;;;4.07;3.03;;;;;;;;;;5013047;28;20553;-68
2023/03/18 13:47:30;;;;;;;5.00;3.30;;;;;;;;;;5012908;28;20429;-67
2023/03/18 13:50:02;;;;;;;5.43;3.73;;;;;;;;;;5013280;28;20445;-69
2023/03/18 13:52:42;;;;;;;3.60;3.30;;;;;;;;;;4992961;28;20484;-68
2023/03/18 13:55:20;;;;;;;3.37;3.07;;;;;;;;;;4993544;28;20787;-68
2023/03/18 13:57:48;;;;;;;6.67;4.07;;;;;;;;;;4993169;28;20441;-68
2023/03/18 14:00:26;;;;;;;4.90;3.90;;;;;;;;;;4993088;28;20484;-69
2023/03/18 14:03:11;;;;;;;3.47;3.13;;;;;;;;;;5016073;28;20449;-68
2023/03/18 14:05:41;;;;;;;3.73;2.67;;;;;;;;;;5006451;28;20511;-68
2023/03/18 14:08:32;;;;;;;5.00;3.43;;;;;;;;;;5016636;28;20447;-68
2023/03/18 14:11:21;;;;;;;2.97;2.50;;;;;;;;;;5001673;28;20883;-68
2023/03/18 14:13:50;;;;;;;3.70;2.50;;;;;;;;;;5016124;28;20883;-68
2023/03/18 14:16:19;;;;;;;4.57;2.70;;;;;;;;;;5016014;28;20441;-70
2023/03/18 14:18:52;;;;;;;2.83;2.63;;;;;;;;;;5016005;28;20454;-68
2023/03/18 14:21:25;;;;;;;3.03;2.80;;;;;;;;;;5015796;28;20453;-68
2023/03/18 14:24:03;;;;;;;2.33;2.20;;;;;;;;;;5015998;28;20471;-68
2023/03/18 14:26:31;;;;;;;2.63;2.33;;;;;;;;;;5016537;28;20427;-69
2023/03/18 14:29:15;;;;;;;3.83;2.70;;;;;;;;;;5015502;28;20553;-68
2023/03/18 14:31:56;;;;;;;2.73;2.50;;;;;;;;;;5015646;28;20514;-68
2023/03/18 14:34:25;;;;;;;3.20;2.90;;;;;;;;;;5015283;28;20490;-68
2023/03/18 14:37:11;;;;;;;2.70;2.50;;;;;;;;;;5015877;28;20802;-69
2023/03/18 14:39:41;;;;;;;6.20;2.93;;;;;;;;;;5015861;28;20528;-67
2023/03/18 14:42:13;;;;;;;3.13;2.60;;;;;;;;;;5015179;28;20446;-68
2023/03/18 14:44:43;;;;;;;3.50;2.90;;;;;;;;;;5015854;28;20498;-68
2023/03/18 14:47:18;;;;;;;2.90;2.53;;;;;;;;;;5015913;28;20446;-68
2023/03/18 14:49:48;;;;;;;4.17;2.40;;;;;;;;;;5015755;28;20434;-68